createdAt,value
2023-06-10T00:02:28.693Z,43.66
2023-06-10T00:04:56.617Z,43.62
2023-06-10T00:07:25.111Z,43.41
2023-06-10T00:09:52.496Z,44.09
2023-06-10T00:12:21.314Z,44.16
2023-06-10T00:14:51.229Z,44.20
2023-06-10T00:17:18.948Z,44.19
2023-06-10T00:19:48.139Z,45.15
2023-06-10T00:22:15.686Z,45.24
2023-06-10T00:24:43.483Z,45.46
2023-06-10T00:27:11.060Z,45.48
2023-06-10T00:29:40.197Z,45.78
2023-06-10T00:32:08.595Z,45.27
2023-06-10T00:34:36.724Z,46.56
2023-06-10T00:37:04.902Z,46.41
2023-06-10T00:39:32.132Z,46.83
2023-06-10T00:41:59.491Z,47.12
2023-06-10T00:44:27.798Z,47.22
2023-06-10T00:46:56.960Z,47.39
2023-06-10T00:49:24.268Z,47.58
2023-06-10T00:51:54.321Z,49.09
2023-06-10T00:54:22.637Z,48.65
2023-06-10T00:56:51.107Z,49.31
2023-06-10T00:59:18.773Z,48.29
2023-06-10T01:01:51.029Z,48.98
2023-06-10T01:04:20.892Z,49.96
2023-06-10T01:07:21.030Z,49.84
2023-06-10T01:10:09.432Z,49.73
2023-06-10T01:13:12.974Z,49.94
2023-06-10T01:15:41.086Z,49.77
2023-06-10T01:18:11.161Z,49.79
2023-06-10T01:20:41.353Z,50.17
2023-06-10T01:23:10.611Z,50.29
2023-06-10T01:26:02.302Z,50.78
2023-06-10T01:28:55.111Z,50.07
2023-06-10T01:31:51.734Z,50.99
2023-06-10T01:34:24.531Z,50.85
2023-06-10T01:36:53.058Z,51.54
2023-06-10T01:39:26.491Z,51.13
2023-06-10T01:41:55.191Z,50.80
2023-06-10T01:44:25.591Z,50.25
2023-06-10T01:46:52.893Z,50.16
2023-06-10T01:49:20.237Z,50.33
2023-06-10T01:51:47.642Z,50.37
2023-06-10T01:54:14.989Z,50.50
2023-06-10T01:56:42.309Z,50.58
2023-06-10T01:59:09.593Z,50.03
2023-06-10T02:01:36.978Z,51.61
2023-06-10T02:04:04.693Z,51.58
2023-06-10T02:06:33.182Z,52.21
2023-06-10T02:09:00.548Z,51.32
2023-06-10T02:11:30.888Z,52.33
2023-06-10T02:13:59.029Z,50.22
2023-06-10T02:16:27.647Z,51.56
2023-06-10T02:18:56.849Z,51.61
2023-06-10T02:21:24.114Z,52.47
2023-06-10T02:23:51.652Z,51.13
2023-06-10T02:26:19.055Z,51.74
2023-06-10T02:28:46.481Z,53.11
2023-06-10T02:31:15.400Z,53.17
2023-06-10T02:33:43.015Z,52.63
2023-06-10T02:36:14.418Z,52.40
2023-06-10T02:38:43.117Z,53.62
2023-06-10T02:41:11.233Z,53.43
2023-06-10T02:43:38.710Z,53.33
2023-06-10T02:46:06.216Z,53.32
2023-06-10T02:48:47.323Z,53.02
2023-06-10T02:51:20.772Z,51.52
2023-06-10T02:53:50.948Z,53.31
2023-06-10T02:56:18.701Z,53.92
2023-06-10T02:58:46.931Z,54.07
2023-06-10T03:01:16.497Z,54.94
2023-06-10T03:03:53.738Z,53.70
2023-06-10T03:06:21.417Z,53.78
2023-06-10T03:08:48.963Z,53.32
2023-06-10T03:11:20.765Z,54.13
2023-06-10T03:13:49.460Z,52.33
2023-06-10T03:16:19.729Z,53.80
2023-06-10T03:18:54.981Z,52.48
2023-06-10T03:21:25.062Z,53.37
2023-06-10T03:23:52.934Z,53.38
2023-06-10T03:26:22.807Z,52.72
2023-06-10T03:28:51.021Z,52.91
2023-06-10T03:31:20.123Z,53.56
2023-06-10T03:33:48.173Z,53.40
2023-06-10T03:36:16.394Z,53.43
2023-06-10T03:38:43.830Z,53.58
2023-06-10T03:41:11.385Z,53.05
2023-06-10T03:43:42.065Z,53.18
2023-06-10T03:46:09.952Z,54.40
2023-06-10T03:48:39.784Z,54.20
2023-06-10T03:51:08.216Z,54.30
2023-06-10T03:53:35.420Z,54.06
2023-06-10T03:56:02.944Z,55.02
2023-06-10T03:58:31.330Z,54.27
2023-06-10T04:01:00.236Z,54.90
2023-06-10T04:03:34.358Z,54.12
2023-06-10T04:06:02.050Z,53.02
2023-06-10T04:08:29.490Z,51.69
2023-06-10T04:10:57.225Z,53.16
2023-06-10T04:13:25.425Z,53.30
2023-06-10T04:15:56.807Z,53.41
2023-06-10T04:18:24.309Z,52.94
2023-06-10T04:20:55.377Z,53.10
2023-06-10T04:23:22.748Z,52.25
2023-06-10T04:25:50.017Z,52.40
2023-06-10T04:28:17.309Z,51.65
2023-06-10T04:30:46.999Z,51.68
2023-06-10T04:33:15.118Z,50.73
2023-06-10T04:35:43.426Z,45.77
2023-06-10T04:38:15.269Z,42.00
2023-06-10T04:40:43.249Z,38.97
2023-06-10T04:43:12.232Z,35.96
2023-06-10T04:45:40.385Z,33.56
2023-06-10T04:48:08.813Z,30.86
2023-06-10T04:50:36.273Z,30.38
2023-06-10T04:53:03.815Z,29.31
2023-06-10T04:55:32.106Z,27.96
2023-06-10T04:57:59.334Z,26.50
2023-06-10T05:00:26.593Z,25.83
2023-06-10T05:02:54.196Z,24.74
2023-06-10T05:05:21.528Z,24.36
2023-06-10T05:07:48.767Z,23.80
2023-06-10T05:10:16.444Z,24.45
2023-06-10T05:12:43.765Z,23.15
2023-06-10T05:15:12.198Z,22.46
2023-06-10T05:17:39.725Z,21.45
2023-06-10T05:20:07.819Z,21.51
2023-06-10T05:22:35.718Z,20.73
2023-06-10T05:25:03.063Z,21.16
2023-06-10T05:27:30.379Z,20.78
2023-06-10T05:29:57.793Z,20.24
2023-06-10T05:32:25.162Z,19.88
2023-06-10T05:34:52.368Z,18.75
2023-06-10T05:37:19.729Z,18.42
2023-06-10T05:39:47.041Z,18.08
2023-06-10T05:42:14.452Z,17.60
2023-06-10T05:44:41.805Z,18.00
2023-06-10T05:47:09.164Z,16.97
2023-06-10T05:49:36.435Z,17.68
2023-06-10T05:52:04.208Z,17.93
2023-06-10T05:54:31.698Z,18.19
2023-06-10T05:56:59.278Z,16.80
2023-06-10T05:59:26.677Z,16.91
2023-06-10T06:01:53.920Z,19.91
2023-06-10T06:04:21.419Z,17.73
2023-06-10T06:06:48.784Z,18.60
2023-06-10T06:09:16.448Z,17.74
2023-06-10T06:11:43.820Z,17.28
2023-06-10T06:14:10.979Z,15.44
2023-06-10T06:16:38.270Z,14.33
2023-06-10T06:19:05.812Z,14.52
2023-06-10T06:21:33.134Z,13.66
2023-06-10T06:24:01.276Z,12.71
2023-06-10T06:26:28.997Z,12.49
2023-06-10T06:28:56.355Z,12.58
2023-06-10T06:31:23.778Z,12.30
2023-06-10T06:33:51.183Z,12.55
2023-06-10T06:36:18.424Z,13.24
2023-06-10T06:38:45.786Z,12.68
2023-06-10T06:41:13.150Z,12.69
2023-06-10T06:43:40.356Z,11.71
2023-06-10T06:46:18.125Z,11.94
2023-06-10T06:48:46.176Z,11.11
2023-06-10T06:51:13.602Z,10.65
2023-06-10T06:53:45.467Z,10.52
2023-06-10T06:56:13.755Z,10.44
2023-06-10T06:58:41.055Z,10.18
2023-06-10T07:01:08.577Z,11.03
2023-06-10T07:03:35.969Z,10.67
2023-06-10T07:06:03.387Z,10.10
2023-06-10T07:08:30.662Z,10.16
2023-06-10T07:10:58.044Z,10.12
2023-06-10T07:13:25.290Z,11.06
2023-06-10T07:15:52.636Z,10.42
2023-06-10T07:18:19.859Z,10.21
2023-06-10T07:20:47.069Z,9.56
2023-06-10T07:23:14.351Z,9.60
2023-06-10T07:25:43.203Z,9.82
2023-06-10T07:28:10.506Z,9.68
2023-06-10T07:30:37.834Z,10.31
2023-06-10T07:33:06.887Z,9.84
2023-06-10T07:35:34.670Z,9.51
2023-06-10T07:38:01.947Z,9.59
2023-06-10T07:40:29.242Z,10.78
2023-06-10T07:42:56.719Z,10.85
2023-06-10T07:45:24.128Z,12.09
2023-06-10T07:47:51.548Z,13.53
2023-06-10T07:50:19.126Z,12.92
2023-06-10T07:52:46.472Z,11.56
2023-06-10T07:55:13.865Z,11.89
2023-06-10T07:57:41.998Z,12.38
2023-06-10T08:00:10.728Z,12.03
2023-06-10T08:02:41.265Z,11.64
2023-06-10T08:05:09.456Z,10.94
2023-06-10T08:07:37.161Z,10.21
2023-06-10T08:10:07.594Z,9.45
2023-06-10T08:12:36.448Z,9.41
2023-06-10T08:15:05.708Z,9.47
2023-06-10T08:17:33.164Z,9.20
2023-06-10T08:20:01.908Z,9.62
2023-06-10T08:22:30.544Z,9.78
2023-06-10T08:24:57.894Z,9.99
2023-06-10T08:27:26.104Z,9.43
2023-06-10T08:29:53.424Z,9.29
2023-06-10T08:32:20.936Z,9.32
2023-06-10T08:34:48.736Z,10.53
2023-06-10T08:37:16.206Z,10.26
2023-06-10T08:39:43.918Z,10.67
2023-06-10T08:42:40.999Z,12.49
2023-06-10T08:45:18.674Z,13.08
2023-06-10T08:47:54.961Z,14.84
2023-06-10T08:50:24.099Z,15.18
2023-06-10T08:52:59.456Z,15.67
2023-06-10T08:55:43.574Z,16.91
2023-06-10T08:58:12.106Z,18.69
2023-06-10T09:00:40.045Z,21.08
2023-06-10T09:03:09.919Z,23.25
2023-06-10T09:05:38.460Z,23.76
2023-06-10T09:08:09.385Z,23.37
2023-06-10T09:10:36.814Z,23.95
2023-06-10T09:13:04.254Z,23.29
2023-06-10T09:15:31.697Z,21.36
2023-06-10T09:18:00.757Z,18.50
2023-06-10T09:20:28.160Z,16.82
2023-06-10T09:22:55.439Z,14.66
2023-06-10T09:25:39.137Z,12.42
2023-06-10T09:28:15.951Z,14.80
2023-06-10T09:30:43.328Z,15.54
2023-06-10T09:33:17.196Z,17.08
2023-06-10T09:35:51.467Z,15.52
2023-06-10T09:38:23.781Z,15.80
2023-06-10T09:40:54.980Z,15.99
2023-06-10T09:43:23.442Z,15.31
2023-06-10T09:45:58.505Z,13.45
2023-06-10T09:48:26.690Z,12.23
2023-06-10T09:50:54.056Z,13.45
2023-06-10T09:53:22.211Z,12.74
2023-06-10T09:55:49.623Z,12.76
2023-06-10T09:58:17.021Z,14.54
2023-06-10T10:00:44.260Z,17.08
2023-06-10T10:03:24.244Z,15.59
2023-06-10T10:06:01.640Z,15.32
2023-06-10T10:08:29.754Z,13.29
2023-06-10T10:10:59.696Z,12.38
2023-06-10T10:13:29.200Z,11.98
2023-06-10T10:16:16.645Z,12.31
2023-06-10T10:18:55.792Z,14.15
2023-06-10T10:21:33.237Z,13.59
2023-06-10T10:24:19.068Z,12.10
2023-06-10T10:26:51.722Z,11.56
2023-06-10T10:29:32.321Z,10.94
2023-06-10T10:32:02.032Z,11.15
2023-06-10T10:35:07.085Z,10.56
2023-06-10T10:37:36.501Z,10.41
2023-06-10T10:40:06.085Z,11.75
2023-06-10T10:42:34.871Z,11.32
2023-06-10T10:45:03.558Z,10.77
2023-06-10T10:47:34.602Z,12.63
2023-06-10T10:50:01.880Z,12.17
2023-06-10T10:53:01.208Z,11.93
2023-06-10T10:55:29.682Z,13.36
2023-06-10T10:58:03.825Z,12.88
2023-06-10T11:00:45.903Z,10.90
2023-06-10T11:03:19.055Z,11.47
2023-06-10T11:05:50.265Z,13.40
2023-06-10T11:08:30.187Z,13.94
2023-06-10T11:10:57.753Z,12.72
2023-06-10T11:13:28.236Z,11.76
2023-06-10T11:15:59.831Z,12.76
2023-06-10T11:18:32.321Z,14.23
2023-06-10T11:21:06.270Z,13.13
2023-06-10T11:23:34.331Z,13.05
2023-06-10T11:26:32.613Z,15.09
2023-06-10T11:28:59.912Z,15.80
2023-06-10T11:31:43.268Z,14.54
2023-06-10T11:34:11.573Z,12.84
2023-06-10T11:36:46.541Z,14.11
2023-06-10T11:39:14.839Z,13.20
2023-06-10T11:41:42.582Z,13.40
2023-06-10T11:44:17.269Z,12.63
2023-06-10T11:46:49.225Z,12.51
2023-06-10T11:49:16.843Z,12.58
2023-06-10T11:51:51.208Z,12.93
2023-06-10T11:54:19.508Z,13.76
2023-06-10T11:56:48.579Z,13.67
2023-06-10T11:59:16.166Z,15.05
2023-06-10T12:01:46.968Z,16.47
2023-06-10T12:04:17.331Z,18.23
2023-06-10T12:06:48.864Z,17.50
2023-06-10T12:09:26.061Z,16.55
2023-06-10T12:12:09.885Z,15.78
2023-06-10T12:15:00.911Z,16.58
2023-06-10T12:17:32.820Z,21.16
2023-06-10T12:20:04.901Z,22.36
2023-06-10T12:22:45.723Z,22.82
2023-06-10T12:25:13.950Z,20.38
2023-06-10T12:27:54.125Z,17.42
2023-06-10T12:30:25.183Z,16.75
2023-06-10T12:32:56.647Z,15.53
2023-06-10T12:35:27.780Z,13.96
2023-06-10T12:38:07.887Z,12.72
2023-06-10T12:40:44.541Z,13.28
2023-06-10T12:43:13.020Z,13.86
2023-06-10T12:45:44.326Z,14.97
2023-06-10T12:48:17.949Z,15.83
2023-06-10T12:50:47.954Z,16.73
2023-06-10T12:53:15.863Z,19.12
2023-06-10T12:55:43.226Z,18.95
2023-06-10T12:58:10.649Z,17.85
2023-06-10T13:00:38.576Z,17.01
2023-06-10T13:03:08.768Z,16.89
2023-06-10T13:05:40.238Z,16.93
2023-06-10T13:08:11.260Z,16.20
2023-06-10T13:10:39.782Z,15.26
2023-06-10T13:13:09.124Z,15.17
2023-06-10T13:15:40.291Z,15.65
2023-06-10T13:18:09.225Z,17.51
2023-06-10T13:20:37.225Z,18.68
2023-06-10T13:23:04.723Z,19.20
2023-06-10T13:25:32.240Z,18.23
2023-06-10T13:27:59.517Z,18.81
2023-06-10T13:30:27.779Z,19.29
2023-06-10T13:32:55.137Z,20.25
2023-06-10T13:35:22.590Z,20.66
2023-06-10T13:37:50.005Z,20.92
2023-06-10T13:40:17.278Z,21.01
2023-06-10T13:42:45.242Z,20.30
2023-06-10T13:45:13.115Z,19.29
2023-06-10T13:47:40.642Z,18.38
2023-06-10T13:50:09.276Z,18.39
2023-06-10T13:52:36.622Z,18.74
2023-06-10T13:55:04.892Z,19.16
2023-06-10T13:57:32.109Z,19.86
2023-06-10T13:59:59.375Z,20.79
2023-06-10T14:02:26.708Z,20.93
2023-06-10T14:04:54.288Z,22.00
2023-06-10T14:07:21.923Z,22.29
2023-06-10T14:09:49.385Z,21.34
2023-06-10T14:12:16.600Z,20.40
2023-06-10T14:14:43.983Z,20.98
2023-06-10T14:17:11.439Z,22.17
2023-06-10T14:19:38.813Z,22.58
2023-06-10T14:22:08.273Z,23.01
2023-06-10T14:24:37.509Z,23.14
2023-06-10T14:27:05.458Z,22.75
2023-06-10T14:29:34.597Z,23.06
2023-06-10T14:32:02.138Z,23.21
2023-06-10T14:34:30.875Z,23.78
2023-06-10T14:36:58.302Z,23.78
2023-06-10T14:39:25.812Z,24.95
2023-06-10T14:41:55.950Z,23.87
2023-06-10T14:44:23.270Z,23.38
2023-06-10T14:46:50.653Z,22.69
2023-06-10T14:49:18.000Z,23.39
2023-06-10T14:51:45.867Z,23.23
2023-06-10T14:54:13.153Z,23.68
2023-06-10T14:56:40.464Z,24.33
2023-06-10T14:59:07.712Z,24.42
2023-06-10T15:01:35.363Z,24.23
2023-06-10T15:04:02.807Z,24.31
2023-06-10T15:06:30.175Z,24.09
2023-06-10T15:08:57.417Z,23.97
2023-06-10T15:11:24.866Z,23.87
2023-06-10T15:13:55.388Z,23.41
2023-06-10T15:16:22.813Z,23.80
2023-06-10T15:18:50.789Z,23.76
2023-06-10T15:21:18.090Z,24.39
2023-06-10T15:23:45.664Z,24.12
2023-06-10T15:26:13.113Z,23.65
2023-06-10T15:28:40.424Z,24.73
2023-06-10T15:31:09.188Z,24.84
2023-06-10T15:33:37.126Z,24.20
2023-06-10T15:36:06.261Z,23.69
2023-06-10T15:38:33.595Z,25.06
2023-06-10T15:41:00.811Z,24.43
2023-06-10T15:43:28.095Z,23.70
2023-06-10T15:45:59.597Z,23.33
2023-06-10T15:48:27.313Z,22.87
2023-06-10T15:50:54.614Z,22.66
2023-06-10T15:53:21.839Z,23.23
2023-06-10T15:55:50.287Z,23.53
2023-06-10T15:58:17.971Z,22.58
2023-06-10T16:00:45.356Z,22.62
2023-06-10T16:03:12.815Z,22.63
2023-06-10T16:05:40.190Z,22.83
2023-06-10T16:08:07.398Z,22.96
2023-06-10T16:10:34.720Z,23.06
2023-06-10T16:13:03.554Z,24.11
2023-06-10T16:15:30.808Z,24.06
2023-06-10T16:17:59.302Z,23.46
2023-06-10T16:20:26.788Z,23.90
2023-06-10T16:22:54.126Z,22.88
2023-06-10T16:25:21.390Z,23.48
2023-06-10T16:27:51.969Z,22.94
2023-06-10T16:30:19.208Z,22.96
2023-06-10T16:32:46.546Z,23.49
2023-06-10T16:35:13.846Z,24.49
2023-06-10T16:37:44.951Z,24.38
2023-06-10T16:40:13.618Z,24.33
2023-06-10T16:42:45.338Z,24.08
2023-06-10T16:45:20.278Z,23.70
2023-06-10T16:47:47.784Z,23.93
2023-06-10T16:50:15.338Z,24.47
2023-06-10T16:52:43.140Z,24.98
2023-06-10T16:55:10.811Z,24.92
2023-06-10T16:57:38.271Z,24.16
2023-06-10T17:00:07.503Z,24.71
2023-06-10T17:02:34.959Z,25.07
2023-06-10T17:05:02.391Z,25.47
2023-06-10T17:07:31.589Z,26.01
2023-06-10T17:09:59.679Z,26.45
2023-06-10T17:12:26.969Z,26.42
2023-06-10T17:14:54.360Z,26.64
2023-06-10T17:17:21.770Z,26.27
2023-06-10T17:19:51.284Z,26.82
2023-06-10T17:22:19.819Z,27.07
2023-06-10T17:24:47.081Z,27.63
2023-06-10T17:27:14.397Z,27.25
2023-06-10T17:29:41.905Z,27.39
2023-06-10T17:32:09.927Z,27.05
2023-06-10T17:34:37.165Z,27.05
2023-06-10T17:37:04.831Z,27.23
2023-06-10T17:39:37.426Z,27.18
2023-06-10T17:42:07.114Z,27.48
2023-06-10T17:44:34.648Z,27.39
2023-06-10T17:47:01.884Z,27.35
2023-06-10T17:49:32.947Z,27.49
2023-06-10T17:52:00.606Z,27.99
2023-06-10T17:54:27.856Z,28.10
2023-06-10T17:56:56.494Z,27.95
2023-06-10T17:59:24.119Z,28.63
2023-06-10T18:01:51.537Z,28.46
2023-06-10T18:04:19.152Z,28.44
2023-06-10T18:06:46.594Z,28.16
2023-06-10T18:09:16.262Z,28.28
2023-06-10T18:11:43.980Z,28.06
2023-06-10T18:14:11.606Z,27.98
2023-06-10T18:16:38.995Z,27.97
2023-06-10T18:19:06.465Z,27.90
2023-06-10T18:21:33.737Z,27.86
2023-06-10T18:24:01.324Z,28.02
2023-06-10T18:26:28.851Z,28.04
2023-06-10T18:28:56.229Z,27.71
2023-06-10T18:31:23.706Z,27.91
2023-06-10T18:33:51.207Z,28.64
2023-06-10T18:36:18.420Z,28.53
2023-06-10T18:38:46.701Z,28.50
2023-06-10T18:41:14.094Z,28.56
2023-06-10T18:43:42.452Z,28.92
2023-06-10T18:46:10.259Z,29.39
2023-06-10T18:48:37.609Z,29.55
2023-06-10T18:51:04.969Z,28.92
2023-06-10T18:53:32.280Z,29.33
2023-06-10T18:56:02.627Z,29.27
2023-06-10T18:58:37.759Z,30.11
2023-06-10T19:01:08.423Z,30.21
2023-06-10T19:03:35.971Z,30.17
2023-06-10T19:06:03.428Z,30.75
2023-06-10T19:08:31.164Z,31.05
2023-06-10T19:10:58.536Z,31.25
2023-06-10T19:13:28.582Z,31.06
2023-06-10T19:15:56.054Z,31.30
2023-06-10T19:18:23.897Z,31.10
2023-06-10T19:20:52.289Z,31.31
2023-06-10T19:23:19.831Z,31.52
2023-06-10T19:25:47.221Z,32.03
2023-06-10T19:28:14.543Z,31.82
2023-06-10T19:31:09.596Z,32.64
2023-06-10T19:33:37.145Z,32.02
2023-06-10T19:36:04.812Z,32.44
2023-06-10T19:38:32.110Z,32.54
2023-06-10T19:40:59.349Z,33.21
2023-06-10T19:43:26.582Z,32.74
2023-06-10T19:45:53.882Z,33.43
2023-06-10T19:48:21.367Z,33.24
2023-06-10T19:50:49.607Z,33.38
2023-06-10T19:53:16.868Z,33.86
2023-06-10T19:55:44.241Z,33.71
2023-06-10T19:58:12.597Z,33.73
2023-06-10T20:00:39.815Z,33.28
2023-06-10T20:03:07.213Z,33.58
2023-06-10T20:05:34.782Z,33.95
2023-06-10T20:08:02.047Z,33.88
2023-06-10T20:10:29.297Z,34.43
2023-06-10T20:12:56.547Z,34.21
2023-06-10T20:15:24.030Z,34.52
2023-06-10T20:17:52.930Z,34.58
2023-06-10T20:20:20.357Z,35.34
2023-06-10T20:22:47.782Z,35.70
2023-06-10T20:25:15.552Z,35.52
2023-06-10T20:27:43.676Z,35.41
2023-06-10T20:30:11.792Z,35.57
2023-06-10T20:32:40.444Z,35.70
2023-06-10T20:35:09.421Z,36.02
2023-06-10T20:37:36.985Z,35.75
2023-06-10T20:40:06.460Z,36.87
2023-06-10T20:42:33.907Z,36.91
2023-06-10T20:45:01.506Z,37.13
2023-06-10T20:47:29.067Z,37.00
2023-06-10T20:49:56.456Z,36.60
2023-06-10T20:52:23.907Z,36.49
2023-06-10T20:54:51.282Z,36.60
2023-06-10T20:57:29.568Z,37.06
2023-06-10T21:00:20.903Z,37.33
2023-06-10T21:03:09.250Z,37.83
2023-06-10T21:05:48.769Z,37.63
2023-06-10T21:08:16.791Z,37.72
2023-06-10T21:10:44.279Z,37.80
2023-06-10T21:13:11.639Z,37.91
2023-06-10T21:15:39.009Z,37.62
2023-06-10T21:18:06.378Z,37.70
2023-06-10T21:20:33.693Z,37.69
2023-06-10T21:23:01.301Z,38.02
2023-06-10T21:25:28.645Z,38.63
2023-06-10T21:27:55.975Z,39.05
2023-06-10T21:30:23.747Z,39.38
2023-06-10T21:32:51.222Z,39.34
2023-06-10T21:35:18.627Z,39.67
2023-06-10T21:37:46.093Z,38.99
2023-06-10T21:40:14.653Z,39.10
2023-06-10T21:42:41.964Z,39.40
2023-06-10T21:45:10.484Z,39.61
2023-06-10T21:47:38.019Z,39.83
2023-06-10T21:50:06.512Z,39.78
2023-06-10T21:52:36.625Z,39.48
2023-06-10T21:55:04.374Z,39.42
2023-06-10T21:57:32.189Z,40.07
2023-06-10T21:59:59.555Z,40.37
2023-06-10T22:02:27.729Z,40.16
2023-06-10T22:04:55.393Z,40.66
2023-06-10T22:07:22.736Z,40.50
2023-06-10T22:09:50.710Z,40.14
2023-06-10T22:12:18.578Z,40.54
2023-06-10T22:14:46.264Z,40.62
2023-06-10T22:17:14.322Z,40.16
2023-06-10T22:19:42.655Z,41.20
2023-06-10T22:22:12.313Z,41.04
2023-06-10T22:24:39.592Z,41.55
2023-06-10T22:27:09.516Z,41.24
2023-06-10T22:29:38.215Z,41.62
2023-06-10T22:32:06.633Z,41.27
2023-06-10T22:34:34.002Z,41.55
2023-06-10T22:37:01.376Z,41.83
2023-06-10T22:39:28.705Z,41.74
2023-06-10T22:41:56.366Z,41.59
2023-06-10T22:44:23.613Z,42.00
2023-06-10T22:46:51.044Z,42.25
2023-06-10T22:49:18.624Z,41.75
2023-06-10T22:51:47.376Z,41.99
2023-06-10T22:54:15.270Z,42.35
2023-06-10T22:56:42.822Z,42.58
2023-06-10T22:59:11.638Z,42.90
2023-06-10T23:01:39.282Z,42.84
2023-06-10T23:04:06.524Z,43.19
2023-06-10T23:06:33.798Z,42.79
2023-06-10T23:09:01.023Z,43.01
2023-06-10T23:11:28.208Z,43.53
2023-06-10T23:13:55.537Z,42.91
2023-06-10T23:16:22.844Z,43.29
2023-06-10T23:18:51.080Z,43.48
2023-06-10T23:21:20.015Z,43.34
2023-06-10T23:23:53.025Z,44.05
2023-06-10T23:26:20.692Z,43.96
2023-06-10T23:28:48.048Z,44.25
2023-06-10T23:31:17.173Z,44.63
2023-06-10T23:33:45.318Z,44.40
2023-06-10T23:36:14.004Z,44.43
2023-06-10T23:38:41.727Z,44.14
2023-06-10T23:41:09.064Z,44.65
2023-06-10T23:43:36.493Z,45.74
2023-06-10T23:46:03.915Z,45.28
2023-06-10T23:48:31.176Z,45.27
2023-06-10T23:51:00.995Z,46.52
2023-06-10T23:53:28.400Z,46.48
2023-06-10T23:55:55.849Z,46.14
2023-06-10T23:58:23.191Z,46.12
